createdAt,value
2023-02-27T00:01:00.841Z,100628.06
2023-02-27T00:03:35.862Z,100634.25
2023-02-27T00:06:18.415Z,100625.66
2023-02-27T00:08:57.597Z,100623.72
2023-02-27T00:11:34.954Z,100625.53
2023-02-27T00:14:21.835Z,100631.69
2023-02-27T00:16:51.986Z,100632.72
2023-02-27T00:19:30.221Z,100628.16
2023-02-27T00:22:01.743Z,100634.75
2023-02-27T00:25:13.457Z,100648.28
2023-02-27T00:28:03.440Z,100651.72
2023-02-27T00:30:39.234Z,100650.78
2023-02-27T00:33:25.400Z,100656.22
2023-02-27T00:36:03.991Z,100658.50
2023-02-27T00:38:36.995Z,100664.25
2023-02-27T00:41:09.849Z,100665.06
2023-02-27T00:43:42.939Z,100669.69
2023-02-27T00:46:24.252Z,100673.44
2023-02-27T00:49:07.439Z,100678.97
2023-02-27T00:51:40.410Z,100680.88
2023-02-27T00:54:12.539Z,100671.97
2023-02-27T00:56:48.795Z,100675.19
2023-02-27T01:02:46.771Z,100693.97
2023-02-27T01:05:26.345Z,100692.56
2023-02-27T01:08:14.638Z,100696.22
2023-02-27T01:10:54.350Z,100697.00
2023-02-27T01:13:41.531Z,100693.53
2023-02-27T01:16:27.005Z,100694.97
2023-02-27T01:19:02.502Z,100700.06
2023-02-27T01:21:48.189Z,100702.97
2023-02-27T01:24:39.474Z,100704.75
2023-02-27T01:27:29.921Z,100701.78
2023-02-27T01:30:18.582Z,100712.22
2023-02-27T01:33:17.065Z,100710.97
2023-02-27T01:36:02.049Z,100709.88
2023-02-27T01:38:42.723Z,100717.28
2023-02-27T01:41:33.033Z,100718.00
2023-02-27T01:44:19.605Z,100719.00
2023-02-27T01:47:00.989Z,100715.03
2023-02-27T01:49:40.151Z,100715.09
2023-02-27T01:52:26.039Z,100725.38
2023-02-27T01:55:10.383Z,100722.25
2023-02-27T01:57:54.027Z,100726.56
2023-02-27T02:00:25.355Z,100723.84
2023-02-27T02:03:38.693Z,100730.03
2023-02-27T02:06:10.499Z,100722.38
2023-02-27T02:08:45.748Z,100729.28
2023-02-27T02:11:20.808Z,100723.19
2023-02-27T02:13:53.480Z,100735.06
2023-02-27T02:16:39.192Z,100726.69
2023-02-27T02:19:49.002Z,100720.84
2023-02-27T02:22:51.893Z,100725.63
2023-02-27T02:25:54.070Z,100729.69
2023-02-27T02:31:57.518Z,100731.78
2023-02-27T02:34:43.963Z,100726.31
2023-02-27T02:37:46.424Z,100731.59
2023-02-27T02:40:52.133Z,100731.59
2023-02-27T02:43:34.298Z,100729.47
2023-02-27T02:46:10.668Z,100735.06
2023-02-27T02:48:57.051Z,100746.34
2023-02-27T02:51:38.159Z,100744.06
2023-02-27T02:54:19.801Z,100747.03
2023-02-27T02:57:00.196Z,100749.66
2023-02-27T03:00:15.314Z,100753.94
2023-02-27T03:03:19.054Z,100753.56
2023-02-27T03:06:17.517Z,100753.22
2023-02-27T03:09:06.239Z,100756.84
2023-02-27T03:11:51.439Z,100750.63
2023-02-27T03:14:38.219Z,100746.72
2023-02-27T03:17:48.059Z,100743.28
2023-02-27T03:20:39.991Z,100745.94
2023-02-27T03:23:58.700Z,100751.44
2023-02-27T03:26:45.181Z,100767.53
2023-02-27T03:29:35.335Z,100776.16
2023-02-27T03:32:18.522Z,100775.34
2023-02-27T03:34:56.870Z,100777.44
2023-02-27T03:38:08.294Z,100779.66
2023-02-27T03:41:09.047Z,100782.94
2023-02-27T03:44:23.878Z,100783.31
2023-02-27T03:47:00.858Z,100784.31
2023-02-27T03:49:35.060Z,100791.41
2023-02-27T03:52:16.001Z,100794.38
2023-02-27T03:55:17.899Z,100796.41
2023-02-27T03:58:00.028Z,100805.63
2023-02-27T04:00:29.233Z,100810.78
2023-02-27T04:03:00.020Z,100830.31
2023-02-27T04:05:44.087Z,100832.28
2023-02-27T04:08:33.613Z,100837.91
2023-02-27T04:11:30.062Z,100846.38
2023-02-27T04:14:07.143Z,100841.75
2023-02-27T04:16:57.808Z,100846.22
2023-02-27T04:19:46.780Z,100847.44
2023-02-27T04:22:36.736Z,100846.84
2023-02-27T04:25:33.754Z,100842.66
2023-02-27T04:28:20.280Z,100829.25
2023-02-27T04:30:59.732Z,100838.69
2023-02-27T04:34:00.390Z,100843.16
2023-02-27T04:36:45.024Z,100841.34
2023-02-27T04:39:25.003Z,100847.22
2023-02-27T04:42:04.237Z,100841.19
2023-02-27T04:47:25.987Z,100841.88
2023-02-27T04:50:04.888Z,100841.31
2023-02-27T04:53:01.173Z,100843.56
2023-02-27T04:55:47.409Z,100841.06
2023-02-27T04:58:26.758Z,100842.16
2023-02-27T05:01:05.290Z,100839.81
2023-02-27T05:03:39.106Z,100839.13
2023-02-27T05:06:13.870Z,100855.09
2023-02-27T05:09:24.915Z,100860.09
2023-02-27T05:12:23.944Z,100861.06
2023-02-27T05:15:38.651Z,100863.31
2023-02-27T05:18:19.624Z,100865.66
2023-02-27T05:21:53.636Z,100857.41
2023-02-27T05:25:04.379Z,100861.63
2023-02-27T05:27:50.424Z,100856.75
2023-02-27T05:31:02.201Z,100864.34
2023-02-27T05:33:52.622Z,100861.44
2023-02-27T05:36:31.834Z,100857.91
2023-02-27T05:39:22.138Z,100856.03
2023-02-27T05:42:17.738Z,100862.16
2023-02-27T05:45:00.363Z,100864.13
2023-02-27T05:47:39.232Z,100864.19
2023-02-27T05:50:25.296Z,100863.28
2023-02-27T05:53:11.862Z,100854.75
2023-02-27T05:56:13.484Z,100864.56
2023-02-27T05:59:02.347Z,100863.91
2023-02-27T06:01:33.959Z,100868.03
2023-02-27T06:04:06.343Z,100863.28
2023-02-27T06:06:49.185Z,100862.34
2023-02-27T06:09:29.318Z,100877.00
2023-02-27T06:12:08.664Z,100862.34
2023-02-27T06:14:52.085Z,100863.22
2023-02-27T06:17:37.049Z,100864.78
2023-02-27T06:20:13.954Z,100868.56
2023-02-27T06:22:53.310Z,100881.56
2023-02-27T06:25:34.047Z,100883.38
2023-02-27T06:28:04.763Z,100890.25
2023-02-27T06:30:32.558Z,100882.63
2023-02-27T06:33:15.980Z,100886.38
2023-02-27T06:35:51.019Z,100878.75
2023-02-27T06:38:38.779Z,100880.69
2023-02-27T06:41:18.294Z,100895.28
2023-02-27T06:43:59.789Z,100895.34
2023-02-27T06:46:45.321Z,100889.69
2023-02-27T06:49:17.240Z,100893.75
2023-02-27T06:51:58.324Z,100905.41
2023-02-27T06:54:30.190Z,100906.25
2023-02-27T06:57:15.935Z,100904.34
2023-02-27T06:59:54.404Z,100904.34
2023-02-27T07:02:39.729Z,100904.28
2023-02-27T07:05:16.816Z,100900.19
2023-02-27T07:08:17.729Z,100901.31
2023-02-27T07:11:03.267Z,100918.38
2023-02-27T07:13:53.670Z,100910.00
2023-02-27T07:16:43.403Z,100913.50
2023-02-27T07:19:22.809Z,100923.06
2023-02-27T07:21:55.819Z,100923.06
2023-02-27T07:24:40.043Z,100921.59
2023-02-27T07:27:09.872Z,100925.88
2023-02-27T07:30:02.578Z,100929.78
2023-02-27T07:32:30.110Z,100928.28
2023-02-27T07:35:03.896Z,100935.09
2023-02-27T07:37:46.111Z,100938.91
2023-02-27T07:40:19.110Z,100941.56
2023-02-27T07:43:05.612Z,100942.50
2023-02-27T07:45:40.340Z,100940.31
2023-02-27T07:48:18.192Z,100946.84
2023-02-27T07:50:48.936Z,100948.47
2023-02-27T07:54:02.145Z,100944.78
2023-02-27T07:56:35.017Z,100953.03
2023-02-27T08:02:16.907Z,100963.94
2023-02-27T08:07:40.724Z,100978.22
2023-02-27T08:10:20.057Z,100976.59
2023-02-27T08:13:02.343Z,100980.50
2023-02-27T08:16:21.660Z,100997.78
2023-02-27T08:18:56.487Z,100996.16
2023-02-27T08:21:44.831Z,100994.56
2023-02-27T08:24:18.180Z,100995.53
2023-02-27T08:27:03.676Z,100998.56
2023-02-27T08:30:04.680Z,100990.06
2023-02-27T08:32:47.559Z,100992.28
2023-02-27T08:35:36.324Z,100998.53
2023-02-27T08:38:23.206Z,100996.53
2023-02-27T08:40:59.262Z,100994.50
2023-02-27T08:43:31.990Z,100998.69
2023-02-27T08:46:08.526Z,101014.00
2023-02-27T08:48:50.320Z,101000.53
2023-02-27T08:51:38.547Z,100994.63
2023-02-27T08:54:20.518Z,100989.03
2023-02-27T08:57:15.389Z,100997.66
2023-02-27T09:03:02.902Z,100991.09
2023-02-27T09:05:38.059Z,100996.31
2023-02-27T09:08:43.003Z,100988.06
2023-02-27T09:11:21.666Z,100986.84
2023-02-27T09:13:56.360Z,100982.56
2023-02-27T09:16:28.156Z,100991.22
2023-02-27T09:19:08.670Z,100986.44
2023-02-27T09:21:49.569Z,100981.50
2023-02-27T09:24:20.929Z,100982.34
2023-02-27T09:26:57.096Z,100985.75
2023-02-27T09:29:34.873Z,100979.25
2023-02-27T09:32:24.076Z,100979.53
2023-02-27T09:35:01.514Z,100969.69
2023-02-27T09:37:35.215Z,100965.69
2023-02-27T09:40:14.565Z,100962.19
2023-02-27T09:42:49.787Z,100973.50
2023-02-27T09:45:45.845Z,100970.56
2023-02-27T09:48:29.021Z,100975.41
2023-02-27T09:54:05.224Z,100968.16
2023-02-27T09:56:39.139Z,100974.09
2023-02-27T09:59:24.962Z,100962.50
2023-02-27T10:05:28.205Z,100959.75
2023-02-27T10:08:26.303Z,100964.53
2023-02-27T10:11:15.287Z,100960.22
2023-02-27T10:14:06.904Z,100948.16
2023-02-27T10:16:44.638Z,100949.72
2023-02-27T10:19:30.735Z,100943.44
2023-02-27T10:22:12.665Z,100943.16
2023-02-27T10:24:57.670Z,100936.22
2023-02-27T10:27:27.374Z,100932.78
2023-02-27T10:30:11.177Z,100939.66
2023-02-27T10:32:41.571Z,100950.81
2023-02-27T10:35:27.773Z,100944.53
2023-02-27T10:38:01.033Z,100948.41
2023-02-27T10:40:31.987Z,100950.03
2023-02-27T10:43:06.276Z,100953.50
2023-02-27T10:45:39.267Z,100955.53
2023-02-27T10:48:12.102Z,100950.38
2023-02-27T10:50:53.507Z,100952.00
2023-02-27T10:53:40.723Z,100959.59
2023-02-27T10:56:28.188Z,100948.06
2023-02-27T10:59:32.320Z,100953.28
2023-02-27T11:02:27.580Z,100955.41
2023-02-27T11:08:38.596Z,100945.22
2023-02-27T11:11:29.395Z,100938.09
2023-02-27T11:14:43.898Z,100930.56
2023-02-27T11:17:40.965Z,100941.34
2023-02-27T11:20:53.043Z,100936.44
2023-02-27T11:23:35.105Z,100927.38
2023-02-27T11:26:26.959Z,100921.63
2023-02-27T11:29:34.429Z,100922.72
2023-02-27T11:32:44.541Z,100917.34
2023-02-27T11:35:40.654Z,100912.09
2023-02-27T11:38:29.397Z,100906.72
2023-02-27T11:41:08.789Z,100908.50
2023-02-27T11:44:31.628Z,100904.72
2023-02-27T11:47:41.992Z,100901.41
2023-02-27T11:54:53.228Z,100892.56
2023-02-27T11:57:53.312Z,100895.34
2023-02-27T12:01:02.954Z,100887.44
2023-02-27T12:04:23.477Z,100888.50
2023-02-27T12:07:35.146Z,100894.00
2023-02-27T12:11:13.808Z,100881.00
2023-02-27T12:14:32.469Z,100881.16
2023-02-27T12:17:36.370Z,100884.50
2023-02-27T12:20:54.654Z,100867.56
2023-02-27T12:24:15.648Z,100870.34
2023-02-27T12:27:31.422Z,100873.09
2023-02-27T12:30:45.500Z,100863.47
2023-02-27T12:33:36.516Z,100857.47
2023-02-27T12:36:22.638Z,100864.31
2023-02-27T12:42:43.324Z,100852.97
2023-02-27T12:45:46.990Z,100854.84
2023-02-27T12:48:43.481Z,100846.94
2023-02-27T12:51:32.568Z,100842.59
2023-02-27T12:54:41.582Z,100840.84
2023-02-27T12:57:28.788Z,100848.44
2023-02-27T13:00:32.238Z,100844.13
2023-02-27T13:03:29.377Z,100826.69
2023-02-27T13:06:49.859Z,100838.25
2023-02-27T13:09:52.700Z,100843.16
2023-02-27T13:12:54.500Z,100842.47
2023-02-27T13:16:07.301Z,100834.69
2023-02-27T13:18:48.546Z,100832.69
2023-02-27T13:21:29.874Z,100831.53
2023-02-27T13:24:28.105Z,100833.25
2023-02-27T13:27:17.309Z,100832.75
2023-02-27T13:30:35.365Z,100831.97
2023-02-27T13:33:22.892Z,100834.84
2023-02-27T13:36:36.168Z,100845.84
2023-02-27T13:39:55.486Z,100848.47
2023-02-27T13:42:34.946Z,100848.13
2023-02-27T13:45:53.850Z,100843.53
2023-02-27T13:48:45.641Z,100822.63
2023-02-27T13:51:48.891Z,100806.22
2023-02-27T13:54:31.129Z,100812.09
2023-02-27T14:00:34.775Z,100830.28
2023-02-27T14:03:28.512Z,100827.47
2023-02-27T14:06:03.034Z,100814.59
2023-02-27T14:08:49.656Z,100819.72
2023-02-27T14:11:51.915Z,100833.03
2023-02-27T14:15:05.046Z,100843.56
2023-02-27T14:17:46.112Z,100840.00
2023-02-27T14:20:29.219Z,100842.09
2023-02-27T14:23:23.661Z,100834.69
2023-02-27T14:26:03.513Z,100842.50
2023-02-27T14:28:53.063Z,100843.09
2023-02-27T14:31:41.466Z,100841.16
2023-02-27T14:34:32.225Z,100842.88
2023-02-27T14:37:14.465Z,100844.75
2023-02-27T14:39:51.040Z,100843.91
2023-02-27T14:42:51.389Z,100842.00
2023-02-27T14:45:40.895Z,100848.28
2023-02-27T14:48:26.319Z,100847.69
2023-02-27T14:51:13.478Z,100855.09
2023-02-27T14:54:05.112Z,100856.06
2023-02-27T14:56:37.716Z,100855.19
2023-02-27T14:59:30.579Z,100862.31
2023-02-27T15:02:42.118Z,100869.59
2023-02-27T15:05:17.220Z,100878.25
2023-02-27T15:07:56.971Z,100872.63
2023-02-27T15:10:42.697Z,100881.34
2023-02-27T15:13:40.201Z,100886.97
2023-02-27T15:16:46.180Z,100889.56
2023-02-27T15:19:35.746Z,100906.84
2023-02-27T15:22:38.666Z,100908.63
2023-02-27T15:25:39.844Z,100924.03
2023-02-27T15:28:19.806Z,100928.03
2023-02-27T15:31:00.385Z,100929.16
2023-02-27T15:33:54.401Z,100940.06
2023-02-27T15:36:47.230Z,100942.84
2023-02-27T15:39:34.090Z,100956.31
2023-02-27T15:42:40.784Z,100956.84
2023-02-27T15:45:22.869Z,100969.09
2023-02-27T15:47:56.008Z,100970.72
2023-02-27T15:50:53.960Z,100968.06
2023-02-27T15:53:43.410Z,100971.06
2023-02-27T15:56:21.530Z,100972.88
2023-02-27T15:59:01.665Z,100959.91
2023-02-27T16:01:40.015Z,100960.47
2023-02-27T16:04:36.098Z,100961.72
2023-02-27T16:07:21.426Z,100964.09
2023-02-27T16:10:12.503Z,100956.00
2023-02-27T16:12:43.448Z,100955.50
2023-02-27T16:15:33.589Z,100954.09
2023-02-27T16:18:34.950Z,100959.00
2023-02-27T16:21:14.123Z,100961.19
2023-02-27T16:23:50.465Z,100955.97
2023-02-27T16:26:37.292Z,100955.00
2023-02-27T16:29:44.080Z,100962.63
2023-02-27T16:32:47.158Z,100967.03
2023-02-27T16:35:32.369Z,100967.44
2023-02-27T16:38:11.415Z,100972.34
2023-02-27T16:40:56.462Z,100973.16
2023-02-27T16:43:33.729Z,100979.16
2023-02-27T16:46:08.704Z,100986.38
2023-02-27T16:48:48.725Z,100999.91
2023-02-27T16:51:38.492Z,100995.91
2023-02-27T16:54:26.115Z,100998.94
2023-02-27T16:57:32.785Z,100998.88
2023-02-27T17:00:26.118Z,100994.56
2023-02-27T17:03:23.814Z,101000.78
2023-02-27T17:06:12.503Z,100992.88
2023-02-27T17:08:50.703Z,100994.69
2023-02-27T17:11:33.587Z,101002.84
2023-02-27T17:14:05.575Z,100996.28
2023-02-27T17:16:50.793Z,100998.31
2023-02-27T17:19:31.378Z,101003.22
2023-02-27T17:22:29.636Z,101005.91
2023-02-27T17:25:06.079Z,101014.81
2023-02-27T17:27:40.099Z,101015.41
2023-02-27T17:30:35.016Z,101019.00
2023-02-27T17:33:23.228Z,101024.13
2023-02-27T17:36:12.397Z,101033.84
2023-02-27T17:42:21.145Z,101038.16
2023-02-27T17:45:08.001Z,101043.59
2023-02-27T17:48:05.316Z,101045.19
2023-02-27T17:50:46.014Z,101046.00
2023-02-27T17:53:30.270Z,101054.66
2023-02-27T17:56:25.681Z,101065.06
2023-02-27T17:59:10.733Z,101079.84
2023-02-27T18:01:50.069Z,101096.88
2023-02-27T18:04:30.303Z,101092.13
2023-02-27T18:07:17.997Z,101097.84
2023-02-27T18:10:17.134Z,101107.69
2023-02-27T18:12:47.979Z,101124.09
2023-02-27T18:15:15.369Z,101127.06
2023-02-27T18:17:44.250Z,101130.00
2023-02-27T18:20:25.739Z,101131.31
2023-02-27T18:23:03.356Z,101137.69
2023-02-27T18:25:37.250Z,101136.97
2023-02-27T18:28:15.816Z,101135.91
2023-02-27T18:30:47.360Z,101131.19
2023-02-27T18:33:27.606Z,101127.06
2023-02-27T18:36:06.603Z,101135.63
2023-02-27T18:38:56.451Z,101135.47
2023-02-27T18:41:29.688Z,101140.97
2023-02-27T18:47:30.127Z,101127.53
2023-02-27T18:50:10.957Z,101121.34
2023-02-27T18:52:44.386Z,101131.03
2023-02-27T18:55:29.577Z,101130.31
2023-02-27T18:58:28.144Z,101128.44
2023-02-27T19:01:08.077Z,101115.56
2023-02-27T19:03:54.046Z,101118.75
2023-02-27T19:06:30.835Z,101114.38
2023-02-27T19:09:16.814Z,101120.47
2023-02-27T19:12:01.764Z,101129.28
2023-02-27T19:14:45.519Z,101132.69
2023-02-27T19:20:28.146Z,101117.59
2023-02-27T19:23:16.777Z,101114.56
2023-02-27T19:26:02.488Z,101121.59
2023-02-27T19:28:56.478Z,101121.84
2023-02-27T19:31:29.376Z,101115.97
2023-02-27T19:34:07.360Z,101118.28
2023-02-27T19:36:40.305Z,101114.22
2023-02-27T19:39:20.842Z,101108.56
2023-02-27T19:42:02.742Z,101108.28
2023-02-27T19:44:44.110Z,101105.31
2023-02-27T19:47:14.642Z,101107.81
2023-02-27T19:49:42.741Z,101097.41
2023-02-27T19:52:20.340Z,101098.59
2023-02-27T19:54:52.002Z,101089.41
2023-02-27T19:57:28.631Z,101088.63
2023-02-27T20:00:22.873Z,101075.19
2023-02-27T20:03:06.296Z,101071.72
2023-02-27T20:05:50.491Z,101070.41
2023-02-27T20:08:30.219Z,101070.31
2023-02-27T20:11:00.363Z,101064.75
2023-02-27T20:13:40.146Z,101053.03
2023-02-27T20:16:28.890Z,101054.16
2023-02-27T20:19:18.497Z,101048.88
2023-02-27T20:21:52.671Z,101046.41
2023-02-27T20:24:32.132Z,101044.47
2023-02-27T20:27:01.528Z,101045.38
2023-02-27T20:29:33.927Z,101039.16
2023-02-27T20:32:21.683Z,101040.69
2023-02-27T20:34:55.911Z,101041.19
2023-02-27T20:37:42.869Z,101032.50
2023-02-27T20:40:47.549Z,101033.50
2023-02-27T20:43:37.666Z,101042.22
2023-02-27T20:46:20.622Z,101039.72
2023-02-27T20:48:55.058Z,101034.75
2023-02-27T20:51:41.478Z,101026.47
2023-02-27T20:54:23.556Z,101021.81
2023-02-27T20:57:08.810Z,101010.69
2023-02-27T20:59:50.916Z,101008.25
2023-02-27T21:02:41.325Z,101015.81
2023-02-27T21:05:34.489Z,101005.63
2023-02-27T21:08:27.745Z,101001.47
2023-02-27T21:11:41.702Z,101000.31
2023-02-27T21:14:27.971Z,100991.13
2023-02-27T21:17:15.534Z,100990.88
2023-02-27T21:20:01.406Z,100989.78
2023-02-27T21:22:39.413Z,100993.88
2023-02-27T21:25:31.931Z,100996.06
2023-02-27T21:28:11.448Z,100999.56
2023-02-27T21:30:57.546Z,100995.28
2023-02-27T21:33:39.067Z,101008.63
2023-02-27T21:36:32.897Z,101015.84
2023-02-27T21:39:21.378Z,101006.69
2023-02-27T21:42:04.978Z,101000.34
2023-02-27T21:44:47.229Z,100997.81
2023-02-27T21:47:21.160Z,100997.78
2023-02-27T21:50:23.768Z,101001.44
2023-02-27T21:52:57.472Z,101000.09
2023-02-27T21:55:27.922Z,100990.69
2023-02-27T21:57:55.425Z,101000.09
2023-02-27T22:00:30.033Z,101002.47
2023-02-27T22:02:57.565Z,101005.50
2023-02-27T22:05:33.531Z,101005.44
2023-02-27T22:08:18.299Z,101002.75
2023-02-27T22:11:13.599Z,100993.66
2023-02-27T22:14:02.970Z,100995.91
2023-02-27T22:17:04.524Z,100991.75
2023-02-27T22:19:59.833Z,100992.75
2023-02-27T22:22:58.915Z,100979.94
2023-02-27T22:25:30.923Z,100972.16
2023-02-27T22:28:16.083Z,100974.03
2023-02-27T22:30:59.603Z,100960.91
2023-02-27T22:33:37.087Z,100967.06
2023-02-27T22:36:17.502Z,100969.78
2023-02-27T22:42:06.796Z,100968.03
2023-02-27T22:44:43.996Z,100963.03
2023-02-27T22:47:29.298Z,100965.66
2023-02-27T22:50:10.951Z,100967.84
2023-02-27T22:52:49.509Z,100965.88
2023-02-27T22:55:31.973Z,100958.97
2023-02-27T22:58:05.486Z,100941.34
2023-02-27T23:01:01.923Z,100946.53
2023-02-27T23:03:36.933Z,100957.16
2023-02-27T23:06:17.762Z,100962.19
2023-02-27T23:08:55.051Z,100970.47
2023-02-27T23:11:33.388Z,100966.38
2023-02-27T23:14:12.303Z,100975.69
2023-02-27T23:16:46.033Z,100976.88
2023-02-27T23:19:20.308Z,100979.94
2023-02-27T23:21:56.354Z,100976.88
2023-02-27T23:24:29.053Z,100966.88
2023-02-27T23:27:07.078Z,100963.72
2023-02-27T23:29:51.924Z,100965.72
2023-02-27T23:32:32.344Z,100963.91
2023-02-27T23:35:11.801Z,100957.59
2023-02-27T23:37:58.504Z,100965.84
2023-02-27T23:40:38.313Z,100966.06
2023-02-27T23:43:17.389Z,100979.13
2023-02-27T23:45:51.155Z,100987.06
2023-02-27T23:48:37.913Z,100990.81
2023-02-27T23:51:33.606Z,101006.09
2023-02-27T23:54:15.666Z,101009.16
2023-02-27T23:56:50.326Z,101015.84
2023-02-27T23:59:32.209Z,101019.78
